sensor_id;sensor_type;location;lat;lon;timestamp;P1;durP1;ratioP1;P2;durP2;ratioP2
56075;SDS011;41951;49.022;12.066;2023-02-01T00:02:01;6.95;;;3.50;;
56075;SDS011;41951;49.022;12.066;2023-02-01T00:04:27;6.88;;;3.42;;
56075;SDS011;41951;49.022;12.066;2023-02-01T00:06:52;6.72;;;3.63;;
56075;SDS011;41951;49.022;12.066;2023-02-01T00:09:18;8.63;;;4.57;;
56075;SDS011;41951;49.022;12.066;2023-02-01T00:11:44;6.10;;;3.22;;
56075;SDS011;41951;49.022;12.066;2023-02-01T00:14:10;6.15;;;3.28;;
56075;SDS011;41951;49.022;12.066;2023-02-01T00:16:35;6.30;;;3.58;;
56075;SDS011;41951;49.022;12.066;2023-02-01T00:19:03;6.40;;;2.83;;
56075;SDS011;41951;49.022;12.066;2023-02-01T00:21:34;5.63;;;3.47;;
56075;SDS011;41951;49.022;12.066;2023-02-01T00:24:00;6.55;;;3.60;;
56075;SDS011;41951;49.022;12.066;2023-02-01T00:29:03;6.80;;;3.47;;
56075;SDS011;41951;49.022;12.066;2023-02-01T00:31:30;9.55;;;4.00;;
56075;SDS011;41951;49.022;12.066;2023-02-01T00:33:56;7.90;;;3.97;;
56075;SDS011;41951;49.022;12.066;2023-02-01T00:36:22;5.93;;;3.65;;
56075;SDS011;41951;49.022;12.066;2023-02-01T00:38:48;8.35;;;3.63;;
56075;SDS011;41951;49.022;12.066;2023-02-01T00:41:15;8.45;;;3.78;;
56075;SDS011;41951;49.022;12.066;2023-02-01T00:43:42;7.45;;;3.78;;
56075;SDS011;41951;49.022;12.066;2023-02-01T00:46:08;7.45;;;3.97;;
56075;SDS011;41951;49.022;12.066;2023-02-01T00:48:35;7.55;;;4.07;;
56075;SDS011;41951;49.022;12.066;2023-02-01T00:51:04;6.78;;;3.85;;
56075;SDS011;41951;49.022;12.066;2023-02-01T00:53:35;7.07;;;3.78;;
56075;SDS011;41951;49.022;12.066;2023-02-01T00:56:01;10.70;;;3.95;;
56075;SDS011;41951;49.022;12.066;2023-02-01T00:58:27;6.25;;;3.42;;
56075;SDS011;41951;49.022;12.066;2023-02-01T01:01:06;6.95;;;4.00;;
56075;SDS011;41951;49.022;12.066;2023-02-01T01:03:41;7.45;;;4.18;;
56075;SDS011;41951;49.022;12.066;2023-02-01T01:06:09;7.28;;;3.80;;
56075;SDS011;41951;49.022;12.066;2023-02-01T01:08:40;10.65;;;3.85;;
56075;SDS011;41951;49.022;12.066;2023-02-01T01:11:08;8.32;;;4.90;;
56075;SDS011;41951;49.022;12.066;2023-02-01T01:13:38;9.25;;;4.43;;
56075;SDS011;41951;49.022;12.066;2023-02-01T01:16:04;6.55;;;3.65;;
56075;SDS011;41951;49.022;12.066;2023-02-01T01:18:31;8.68;;;3.92;;
56075;SDS011;41951;49.022;12.066;2023-02-01T01:20:58;9.30;;;4.55;;
56075;SDS011;41951;49.022;12.066;2023-02-01T01:23:24;7.50;;;4.00;;
56075;SDS011;41951;49.022;12.066;2023-02-01T01:25:50;7.78;;;4.47;;
56075;SDS011;41951;49.022;12.066;2023-02-01T01:28:15;10.23;;;4.00;;
56075;SDS011;41951;49.022;12.066;2023-02-01T01:30:41;9.18;;;4.20;;
56075;SDS011;41951;49.022;12.066;2023-02-01T01:33:07;7.05;;;4.55;;
56075;SDS011;41951;49.022;12.066;2023-02-01T01:35:32;7.30;;;4.20;;
56075;SDS011;41951;49.022;12.066;2023-02-01T01:37:58;6.38;;;3.75;;
56075;SDS011;41951;49.022;12.066;2023-02-01T01:40:25;7.03;;;4.30;;
56075;SDS011;41951;49.022;12.066;2023-02-01T01:42:52;10.55;;;3.90;;
56075;SDS011;41951;49.022;12.066;2023-02-01T01:47:46;7.93;;;3.85;;
56075;SDS011;41951;49.022;12.066;2023-02-01T01:52:46;12.20;;;4.95;;
56075;SDS011;41951;49.022;12.066;2023-02-01T01:55:15;5.80;;;3.65;;
56075;SDS011;41951;49.022;12.066;2023-02-01T01:57:44;7.43;;;3.90;;
56075;SDS011;41951;49.022;12.066;2023-02-01T02:00:15;6.45;;;3.70;;
56075;SDS011;41951;49.022;12.066;2023-02-01T02:02:44;6.20;;;3.63;;
56075;SDS011;41951;49.022;12.066;2023-02-01T02:05:13;6.35;;;3.92;;
56075;SDS011;41951;49.022;12.066;2023-02-01T02:07:40;9.25;;;3.85;;
56075;SDS011;41951;49.022;12.066;2023-02-01T02:10:10;7.90;;;3.42;;
56075;SDS011;41951;49.022;12.066;2023-02-01T02:12:40;10.80;;;5.55;;
56075;SDS011;41951;49.022;12.066;2023-02-01T02:15:09;6.90;;;3.80;;
56075;SDS011;41951;49.022;12.066;2023-02-01T02:39:08;6.63;;;4.10;;
56075;SDS011;41951;49.022;12.066;2023-02-01T02:42:21;4.38;;;3.00;;
56075;SDS011;41951;49.022;12.066;2023-02-01T02:48:28;7.50;;;3.17;;
56075;SDS011;41951;49.022;12.066;2023-02-01T02:51:08;5.63;;;3.35;;
56075;SDS011;41951;49.022;12.066;2023-02-01T02:54:04;8.00;;;3.10;;
56075;SDS011;41951;49.022;12.066;2023-02-01T02:56:49;5.47;;;2.90;;
56075;SDS011;41951;49.022;12.066;2023-02-01T02:59:35;5.18;;;2.90;;
56075;SDS011;41951;49.022;12.066;2023-02-01T03:02:21;7.00;;;3.13;;
56075;SDS011;41951;49.022;12.066;2023-02-01T03:05:06;6.78;;;3.03;;
56075;SDS011;41951;49.022;12.066;2023-02-01T03:13:16;5.80;;;2.70;;
56075;SDS011;41951;49.022;12.066;2023-02-01T03:15:49;4.77;;;2.67;;
56075;SDS011;41951;49.022;12.066;2023-02-01T03:18:33;5.57;;;3.40;;
56075;SDS011;41951;49.022;12.066;2023-02-01T03:21:02;5.38;;;2.85;;
56075;SDS011;41951;49.022;12.066;2023-02-01T03:23:34;4.18;;;2.60;;
56075;SDS011;41951;49.022;12.066;2023-02-01T03:26:03;4.60;;;2.95;;
56075;SDS011;41951;49.022;12.066;2023-02-01T03:28:32;6.18;;;3.15;;
56075;SDS011;41951;49.022;12.066;2023-02-01T03:30:59;4.97;;;2.97;;
56075;SDS011;41951;49.022;12.066;2023-02-01T03:33:26;5.75;;;2.85;;
56075;SDS011;41951;49.022;12.066;2023-02-01T03:36:03;7.28;;;3.13;;
56075;SDS011;41951;49.022;12.066;2023-02-01T03:41:34;4.78;;;3.05;;
56075;SDS011;41951;49.022;12.066;2023-02-01T03:44:15;4.47;;;2.67;;
56075;SDS011;41951;49.022;12.066;2023-02-01T03:46:49;5.88;;;3.10;;
56075;SDS011;41951;49.022;12.066;2023-02-01T03:49:46;5.85;;;3.38;;
56075;SDS011;41951;49.022;12.066;2023-02-01T03:52:44;4.95;;;3.05;;
56075;SDS011;41951;49.022;12.066;2023-02-01T03:55:19;4.90;;;3.00;;
56075;SDS011;41951;49.022;12.066;2023-02-01T03:58:06;9.65;;;4.80;;
56075;SDS011;41951;49.022;12.066;2023-02-01T04:00:46;6.60;;;3.08;;
56075;SDS011;41951;49.022;12.066;2023-02-01T04:03:19;5.70;;;2.72;;
56075;SDS011;41951;49.022;12.066;2023-02-01T04:05:46;6.90;;;3.15;;
56075;SDS011;41951;49.022;12.066;2023-02-01T04:08:12;6.82;;;3.70;;
56075;SDS011;41951;49.022;12.066;2023-02-01T04:10:38;4.78;;;2.70;;
56075;SDS011;41951;49.022;12.066;2023-02-01T04:13:04;5.72;;;2.83;;
56075;SDS011;41951;49.022;12.066;2023-02-01T04:15:29;4.30;;;2.80;;
56075;SDS011;41951;49.022;12.066;2023-02-01T04:17:55;5.18;;;2.50;;
56075;SDS011;41951;49.022;12.066;2023-02-01T04:20:20;4.22;;;2.90;;
56075;SDS011;41951;49.022;12.066;2023-02-01T04:22:46;6.60;;;3.17;;
56075;SDS011;41951;49.022;12.066;2023-02-01T04:25:11;3.95;;;2.72;;
56075;SDS011;41951;49.022;12.066;2023-02-01T04:27:37;4.28;;;2.50;;
56075;SDS011;41951;49.022;12.066;2023-02-01T04:30:03;5.53;;;2.80;;
56075;SDS011;41951;49.022;12.066;2023-02-01T04:32:30;5.55;;;2.72;;
56075;SDS011;41951;49.022;12.066;2023-02-01T04:34:55;5.65;;;2.50;;
56075;SDS011;41951;49.022;12.066;2023-02-01T04:37:21;4.55;;;2.30;;
56075;SDS011;41951;49.022;12.066;2023-02-01T04:39:46;5.20;;;2.90;;
56075;SDS011;41951;49.022;12.066;2023-02-01T04:42:12;4.35;;;2.45;;
56075;SDS011;41951;49.022;12.066;2023-02-01T04:44:38;5.20;;;3.08;;
56075;SDS011;41951;49.022;12.066;2023-02-01T04:47:06;4.75;;;2.65;;
56075;SDS011;41951;49.022;12.066;2023-02-01T04:49:32;4.47;;;2.30;;
56075;SDS011;41951;49.022;12.066;2023-02-01T04:51:58;6.60;;;3.42;;
56075;SDS011;41951;49.022;12.066;2023-02-01T04:54:24;5.15;;;2.40;;
56075;SDS011;41951;49.022;12.066;2023-02-01T04:56:50;5.95;;;2.30;;
56075;SDS011;41951;49.022;12.066;2023-02-01T04:59:15;3.45;;;2.13;;
56075;SDS011;41951;49.022;12.066;2023-02-01T05:01:41;3.83;;;2.33;;
56075;SDS011;41951;49.022;12.066;2023-02-01T05:04:07;4.97;;;2.17;;
56075;SDS011;41951;49.022;12.066;2023-02-01T05:06:32;4.82;;;1.88;;
56075;SDS011;41951;49.022;12.066;2023-02-01T05:08:58;5.25;;;2.10;;
56075;SDS011;41951;49.022;12.066;2023-02-01T05:11:23;5.20;;;2.33;;
56075;SDS011;41951;49.022;12.066;2023-02-01T05:14:07;4.63;;;2.15;;
56075;SDS011;41951;49.022;12.066;2023-02-01T05:16:33;4.50;;;2.33;;
56075;SDS011;41951;49.022;12.066;2023-02-01T05:18:59;3.75;;;2.20;;
56075;SDS011;41951;49.022;12.066;2023-02-01T05:21:25;6.03;;;2.58;;
56075;SDS011;41951;49.022;12.066;2023-02-01T05:23:51;4.57;;;2.22;;
56075;SDS011;41951;49.022;12.066;2023-02-01T05:26:35;4.05;;;2.10;;
56075;SDS011;41951;49.022;12.066;2023-02-01T05:29:02;4.45;;;2.28;;
56075;SDS011;41951;49.022;12.066;2023-02-01T05:31:28;4.13;;;2.20;;
56075;SDS011;41951;49.022;12.066;2023-02-01T05:33:54;4.68;;;2.25;;
56075;SDS011;41951;49.022;12.066;2023-02-01T05:36:20;4.18;;;1.90;;
56075;SDS011;41951;49.022;12.066;2023-02-01T05:41:26;4.45;;;2.10;;
56075;SDS011;41951;49.022;12.066;2023-02-01T05:43:51;3.75;;;2.20;;
56075;SDS011;41951;49.022;12.066;2023-02-01T05:46:17;4.50;;;2.03;;
56075;SDS011;41951;49.022;12.066;2023-02-01T05:48:42;4.75;;;1.98;;
56075;SDS011;41951;49.022;12.066;2023-02-01T05:51:09;3.40;;;2.13;;
56075;SDS011;41951;49.022;12.066;2023-02-01T05:53:35;3.25;;;1.70;;
56075;SDS011;41951;49.022;12.066;2023-02-01T05:56:00;4.85;;;1.88;;
56075;SDS011;41951;49.022;12.066;2023-02-01T05:58:26;4.55;;;2.00;;
56075;SDS011;41951;49.022;12.066;2023-02-01T06:00:52;3.72;;;1.90;;
56075;SDS011;41951;49.022;12.066;2023-02-01T06:03:18;3.75;;;2.10;;
56075;SDS011;41951;49.022;12.066;2023-02-01T06:05:44;3.75;;;2.20;;
56075;SDS011;41951;49.022;12.066;2023-02-01T06:08:11;3.83;;;1.80;;
56075;SDS011;41951;49.022;12.066;2023-02-01T06:10:37;5.05;;;2.03;;
56075;SDS011;41951;49.022;12.066;2023-02-01T06:13:03;7.20;;;3.05;;
56075;SDS011;41951;49.022;12.066;2023-02-01T06:15:29;4.20;;;2.08;;
56075;SDS011;41951;49.022;12.066;2023-02-01T06:17:55;4.85;;;2.00;;
56075;SDS011;41951;49.022;12.066;2023-02-01T06:20:20;3.53;;;1.85;;
56075;SDS011;41951;49.022;12.066;2023-02-01T06:22:46;4.90;;;1.95;;
56075;SDS011;41951;49.022;12.066;2023-02-01T06:25:12;3.33;;;1.98;;
56075;SDS011;41951;49.022;12.066;2023-02-01T06:27:38;3.70;;;2.10;;
56075;SDS011;41951;49.022;12.066;2023-02-01T06:30:04;4.88;;;1.92;;
56075;SDS011;41951;49.022;12.066;2023-02-01T06:32:31;5.82;;;1.95;;
56075;SDS011;41951;49.022;12.066;2023-02-01T06:34:57;4.97;;;2.10;;
56075;SDS011;41951;49.022;12.066;2023-02-01T06:37:23;4.78;;;2.10;;
56075;SDS011;41951;49.022;12.066;2023-02-01T06:39:50;3.35;;;1.80;;
56075;SDS011;41951;49.022;12.066;2023-02-01T06:42:16;4.82;;;1.90;;
56075;SDS011;41951;49.022;12.066;2023-02-01T06:44:42;5.35;;;2.40;;
56075;SDS011;41951;49.022;12.066;2023-02-01T06:47:08;4.43;;;1.83;;
56075;SDS011;41951;49.022;12.066;2023-02-01T06:49:34;3.80;;;2.25;;
56075;SDS011;41951;49.022;12.066;2023-02-01T06:51:59;3.65;;;2.20;;
56075;SDS011;41951;49.022;12.066;2023-02-01T06:54:25;5.03;;;2.20;;
56075;SDS011;41951;49.022;12.066;2023-02-01T06:56:52;3.47;;;2.00;;
56075;SDS011;41951;49.022;12.066;2023-02-01T06:59:18;4.53;;;2.20;;
56075;SDS011;41951;49.022;12.066;2023-02-01T07:01:43;3.95;;;1.60;;
56075;SDS011;41951;49.022;12.066;2023-02-01T07:04:09;4.07;;;1.83;;
56075;SDS011;41951;49.022;12.066;2023-02-01T07:06:39;4.30;;;2.00;;
56075;SDS011;41951;49.022;12.066;2023-02-01T07:09:05;4.50;;;2.05;;
56075;SDS011;41951;49.022;12.066;2023-02-01T07:11:31;3.88;;;2.03;;
56075;SDS011;41951;49.022;12.066;2023-02-01T07:13:57;3.90;;;2.03;;
56075;SDS011;41951;49.022;12.066;2023-02-01T07:16:23;3.83;;;2.08;;
56075;SDS011;41951;49.022;12.066;2023-02-01T07:18:49;4.60;;;1.90;;
56075;SDS011;41951;49.022;12.066;2023-02-01T07:21:16;3.60;;;2.10;;
56075;SDS011;41951;49.022;12.066;2023-02-01T07:23:42;4.75;;;2.35;;
56075;SDS011;41951;49.022;12.066;2023-02-01T07:26:09;4.22;;;2.33;;
56075;SDS011;41951;49.022;12.066;2023-02-01T07:28:37;5.40;;;2.58;;
56075;SDS011;41951;49.022;12.066;2023-02-01T07:31:03;4.38;;;2.55;;
56075;SDS011;41951;49.022;12.066;2023-02-01T07:33:34;4.35;;;2.40;;
56075;SDS011;41951;49.022;12.066;2023-02-01T07:36:00;5.28;;;2.88;;
56075;SDS011;41951;49.022;12.066;2023-02-01T07:38:28;7.65;;;3.17;;
56075;SDS011;41951;49.022;12.066;2023-02-01T07:40:57;5.18;;;2.30;;
56075;SDS011;41951;49.022;12.066;2023-02-01T07:43:24;6.05;;;2.20;;
56075;SDS011;41951;49.022;12.066;2023-02-01T07:45:50;3.92;;;2.20;;
56075;SDS011;41951;49.022;12.066;2023-02-01T07:48:17;5.85;;;2.97;;
56075;SDS011;41951;49.022;12.066;2023-02-01T07:50:43;6.93;;;2.55;;
56075;SDS011;41951;49.022;12.066;2023-02-01T07:53:08;5.38;;;3.22;;
56075;SDS011;41951;49.022;12.066;2023-02-01T07:55:34;4.57;;;2.58;;
56075;SDS011;41951;49.022;12.066;2023-02-01T07:58:02;6.53;;;3.20;;
56075;SDS011;41951;49.022;12.066;2023-02-01T08:00:28;4.50;;;2.70;;
56075;SDS011;41951;49.022;12.066;2023-02-01T08:03:12;4.22;;;2.47;;
56075;SDS011;41951;49.022;12.066;2023-02-01T08:05:38;4.93;;;2.30;;
56075;SDS011;41951;49.022;12.066;2023-02-01T08:08:04;3.33;;;2.15;;
56075;SDS011;41951;49.022;12.066;2023-02-01T08:10:29;4.35;;;2.00;;
56075;SDS011;41951;49.022;12.066;2023-02-01T08:12:57;4.50;;;2.30;;
56075;SDS011;41951;49.022;12.066;2023-02-01T08:15:24;5.07;;;2.38;;
56075;SDS011;41951;49.022;12.066;2023-02-01T08:17:52;4.70;;;2.40;;
56075;SDS011;41951;49.022;12.066;2023-02-01T08:20:19;6.00;;;2.20;;
56075;SDS011;41951;49.022;12.066;2023-02-01T08:22:46;5.15;;;2.38;;
56075;SDS011;41951;49.022;12.066;2023-02-01T08:25:12;4.15;;;1.95;;
56075;SDS011;41951;49.022;12.066;2023-02-01T08:27:38;4.82;;;2.20;;
56075;SDS011;41951;49.022;12.066;2023-02-01T08:30:04;4.88;;;2.42;;
56075;SDS011;41951;49.022;12.066;2023-02-01T08:32:32;4.13;;;2.20;;
56075;SDS011;41951;49.022;12.066;2023-02-01T08:34:58;4.90;;;2.30;;
56075;SDS011;41951;49.022;12.066;2023-02-01T08:37:23;5.18;;;2.10;;
56075;SDS011;41951;49.022;12.066;2023-02-01T08:39:49;5.75;;;2.60;;
56075;SDS011;41951;49.022;12.066;2023-02-01T08:42:15;4.40;;;2.25;;
56075;SDS011;41951;49.022;12.066;2023-02-01T08:45:00;4.65;;;2.20;;
56075;SDS011;41951;49.022;12.066;2023-02-01T08:47:27;3.67;;;2.05;;
56075;SDS011;41951;49.022;12.066;2023-02-01T08:49:53;4.93;;;2.10;;
56075;SDS011;41951;49.022;12.066;2023-02-01T08:52:19;4.22;;;1.90;;
56075;SDS011;41951;49.022;12.066;2023-02-01T08:54:45;6.10;;;1.85;;
56075;SDS011;41951;49.022;12.066;2023-02-01T08:57:10;6.00;;;1.80;;
56075;SDS011;41951;49.022;12.066;2023-02-01T08:59:36;4.50;;;1.83;;
56075;SDS011;41951;49.022;12.066;2023-02-01T09:02:02;3.90;;;1.95;;
56075;SDS011;41951;49.022;12.066;2023-02-01T09:04:27;5.43;;;2.10;;
56075;SDS011;41951;49.022;12.066;2023-02-01T09:06:53;3.28;;;1.45;;
56075;SDS011;41951;49.022;12.066;2023-02-01T09:09:20;3.13;;;1.50;;
56075;SDS011;41951;49.022;12.066;2023-02-01T09:11:46;3.97;;;1.73;;
56075;SDS011;41951;49.022;12.066;2023-02-01T09:14:12;4.95;;;1.60;;
56075;SDS011;41951;49.022;12.066;2023-02-01T09:16:38;2.88;;;1.40;;
56075;SDS011;41951;49.022;12.066;2023-02-01T09:19:03;3.42;;;1.40;;
56075;SDS011;41951;49.022;12.066;2023-02-01T09:21:29;4.07;;;1.40;;
56075;SDS011;41951;49.022;12.066;2023-02-01T09:23:55;2.95;;;1.40;;
56075;SDS011;41951;49.022;12.066;2023-02-01T09:26:20;3.03;;;1.40;;
56075;SDS011;41951;49.022;12.066;2023-02-01T09:28:46;4.60;;;1.58;;
56075;SDS011;41951;49.022;12.066;2023-02-01T09:31:11;2.80;;;1.60;;
56075;SDS011;41951;49.022;12.066;2023-02-01T09:33:37;3.25;;;1.63;;
56075;SDS011;41951;49.022;12.066;2023-02-01T09:36:03;4.13;;;1.75;;
56075;SDS011;41951;49.022;12.066;2023-02-01T09:38:30;2.65;;;1.50;;
56075;SDS011;41951;49.022;12.066;2023-02-01T09:40:56;2.58;;;1.40;;
56075;SDS011;41951;49.022;12.066;2023-02-01T09:43:33;3.15;;;1.67;;
56075;SDS011;41951;49.022;12.066;2023-02-01T09:46:27;3.20;;;1.58;;
56075;SDS011;41951;49.022;12.066;2023-02-01T09:48:57;3.03;;;1.70;;
56075;SDS011;41951;49.022;12.066;2023-02-01T09:51:31;2.55;;;1.35;;
56075;SDS011;41951;49.022;12.066;2023-02-01T09:54:03;4.40;;;1.50;;
56075;SDS011;41951;49.022;12.066;2023-02-01T09:56:51;4.68;;;1.60;;
56075;SDS011;41951;49.022;12.066;2023-02-01T10:01:57;4.47;;;2.28;;
56075;SDS011;41951;49.022;12.066;2023-02-01T10:04:24;3.55;;;1.60;;
56075;SDS011;41951;49.022;12.066;2023-02-01T10:09:50;4.85;;;1.95;;
56075;SDS011;41951;49.022;12.066;2023-02-01T10:26:45;4.90;;;2.30;;
56075;SDS011;41951;49.022;12.066;2023-02-01T10:29:35;6.47;;;2.40;;
56075;SDS011;41951;49.022;12.066;2023-02-01T10:32:09;6.55;;;2.35;;
56075;SDS011;41951;49.022;12.066;2023-02-01T10:34:44;6.60;;;2.80;;
56075;SDS011;41951;49.022;12.066;2023-02-01T10:37:32;6.72;;;3.17;;
56075;SDS011;41951;49.022;12.066;2023-02-01T10:40:03;5.00;;;2.50;;
56075;SDS011;41951;49.022;12.066;2023-02-01T10:42:41;8.18;;;2.78;;
56075;SDS011;41951;49.022;12.066;2023-02-01T10:45:11;7.07;;;2.72;;
56075;SDS011;41951;49.022;12.066;2023-02-01T10:47:38;10.30;;;2.67;;
56075;SDS011;41951;49.022;12.066;2023-02-01T10:58:28;9.57;;;3.10;;
56075;SDS011;41951;49.022;12.066;2023-02-01T11:01:06;7.80;;;2.75;;
56075;SDS011;41951;49.022;12.066;2023-02-01T11:03:39;5.40;;;2.30;;
56075;SDS011;41951;49.022;12.066;2023-02-01T11:06:24;6.10;;;2.78;;
56075;SDS011;41951;49.022;12.066;2023-02-01T11:09:16;5.78;;;2.20;;
56075;SDS011;41951;49.022;12.066;2023-02-01T11:14:16;4.57;;;2.08;;
56075;SDS011;41951;49.022;12.066;2023-02-01T11:17:01;7.90;;;2.60;;
56075;SDS011;41951;49.022;12.066;2023-02-01T11:19:44;7.75;;;2.33;;
56075;SDS011;41951;49.022;12.066;2023-02-01T11:22:11;9.20;;;2.80;;
56075;SDS011;41951;49.022;12.066;2023-02-01T11:24:38;10.27;;;3.50;;
56075;SDS011;41951;49.022;12.066;2023-02-01T11:27:06;12.80;;;2.45;;
56075;SDS011;41951;49.022;12.066;2023-02-01T11:29:41;8.77;;;2.13;;
56075;SDS011;41951;49.022;12.066;2023-02-01T11:32:10;4.85;;;2.58;;
56075;SDS011;41951;49.022;12.066;2023-02-01T11:34:39;10.13;;;2.78;;
56075;SDS011;41951;49.022;12.066;2023-02-01T11:37:32;8.50;;;2.38;;
56075;SDS011;41951;49.022;12.066;2023-02-01T11:40:03;8.50;;;2.20;;
56075;SDS011;41951;49.022;12.066;2023-02-01T11:42:55;9.68;;;2.67;;
56075;SDS011;41951;49.022;12.066;2023-02-01T11:47:53;9.80;;;2.53;;
56075;SDS011;41951;49.022;12.066;2023-02-01T11:50:28;9.73;;;3.13;;
56075;SDS011;41951;49.022;12.066;2023-02-01T11:58:22;8.60;;;2.45;;
56075;SDS011;41951;49.022;12.066;2023-02-01T12:06:54;8.43;;;2.38;;
56075;SDS011;41951;49.022;12.066;2023-02-01T12:09:26;7.07;;;2.63;;
56075;SDS011;41951;49.022;12.066;2023-02-01T12:20:55;4.93;;;1.90;;
56075;SDS011;41951;49.022;12.066;2023-02-01T12:26:26;8.57;;;2.28;;
56075;SDS011;41951;49.022;12.066;2023-02-01T12:29:31;5.43;;;2.22;;
56075;SDS011;41951;49.022;12.066;2023-02-01T12:32:23;8.48;;;2.95;;
56075;SDS011;41951;49.022;12.066;2023-02-01T12:43:52;11.95;;;3.50;;
56075;SDS011;41951;49.022;12.066;2023-02-01T12:49:19;5.28;;;2.28;;
56075;SDS011;41951;49.022;12.066;2023-02-01T12:51:58;7.90;;;2.10;;
56075;SDS011;41951;49.022;12.066;2023-02-01T12:57:02;5.53;;;2.10;;
56075;SDS011;41951;49.022;12.066;2023-02-01T12:59:47;4.72;;;2.13;;
56075;SDS011;41951;49.022;12.066;2023-02-01T13:05:18;9.75;;;2.20;;
56075;SDS011;41951;49.022;12.066;2023-02-01T13:07:53;8.00;;;2.58;;
56075;SDS011;41951;49.022;12.066;2023-02-01T13:10:24;7.55;;;2.72;;
56075;SDS011;41951;49.022;12.066;2023-02-01T13:13:09;9.17;;;3.37;;
56075;SDS011;41951;49.022;12.066;2023-02-01T13:15:49;9.77;;;2.88;;
56075;SDS011;41951;49.022;12.066;2023-02-01T13:18:24;9.48;;;2.65;;
56075;SDS011;41951;49.022;12.066;2023-02-01T13:21:10;11.75;;;3.38;;
56075;SDS011;41951;49.022;12.066;2023-02-01T13:23:45;9.65;;;2.70;;
56075;SDS011;41951;49.022;12.066;2023-02-01T13:26:13;12.98;;;3.28;;
56075;SDS011;41951;49.022;12.066;2023-02-01T13:44:51;7.30;;;2.70;;
56075;SDS011;41951;49.022;12.066;2023-02-01T13:47:33;9.90;;;3.88;;
56075;SDS011;41951;49.022;12.066;2023-02-01T13:50:11;6.68;;;2.50;;
56075;SDS011;41951;49.022;12.066;2023-02-01T13:57:47;8.45;;;2.05;;
56075;SDS011;41951;49.022;12.066;2023-02-01T14:00:30;6.07;;;1.98;;
56075;SDS011;41951;49.022;12.066;2023-02-01T14:23:40;8.77;;;2.75;;
56075;SDS011;41951;49.022;12.066;2023-02-01T14:26:45;8.27;;;1.98;;
56075;SDS011;41951;49.022;12.066;2023-02-01T14:37:33;7.47;;;2.08;;
56075;SDS011;41951;49.022;12.066;2023-02-01T14:42:43;11.68;;;2.40;;
56075;SDS011;41951;49.022;12.066;2023-02-01T14:47:43;8.60;;;2.13;;
56075;SDS011;41951;49.022;12.066;2023-02-01T14:58:55;5.00;;;2.05;;
56075;SDS011;41951;49.022;12.066;2023-02-01T15:09:02;8.25;;;2.17;;
56075;SDS011;41951;49.022;12.066;2023-02-01T15:11:32;10.68;;;2.00;;
56075;SDS011;41951;49.022;12.066;2023-02-01T15:14:17;8.40;;;2.00;;
56075;SDS011;41951;49.022;12.066;2023-02-01T15:16:43;6.65;;;2.10;;
56075;SDS011;41951;49.022;12.066;2023-02-01T15:19:14;7.85;;;1.95;;
56075;SDS011;41951;49.022;12.066;2023-02-01T15:21:44;6.97;;;2.05;;
56075;SDS011;41951;49.022;12.066;2023-02-01T15:24:18;4.95;;;1.80;;
56075;SDS011;41951;49.022;12.066;2023-02-01T15:26:49;6.80;;;1.80;;
56075;SDS011;41951;49.022;12.066;2023-02-01T15:29:16;6.15;;;1.80;;
56075;SDS011;41951;49.022;12.066;2023-02-01T15:31:48;8.85;;;2.08;;
56075;SDS011;41951;49.022;12.066;2023-02-01T15:34:15;5.82;;;2.13;;
56075;SDS011;41951;49.022;12.066;2023-02-01T15:36:41;7.70;;;1.95;;
56075;SDS011;41951;49.022;12.066;2023-02-01T15:39:26;9.68;;;2.22;;
56075;SDS011;41951;49.022;12.066;2023-02-01T15:42:15;10.07;;;2.78;;
56075;SDS011;41951;49.022;12.066;2023-02-01T15:44:44;13.35;;;2.22;;
56075;SDS011;41951;49.022;12.066;2023-02-01T15:47:18;10.05;;;2.35;;
56075;SDS011;41951;49.022;12.066;2023-02-01T15:49:52;8.18;;;3.17;;
56075;SDS011;41951;49.022;12.066;2023-02-01T15:52:21;9.57;;;2.03;;
56075;SDS011;41951;49.022;12.066;2023-02-01T15:54:55;9.82;;;4.57;;
56075;SDS011;41951;49.022;12.066;2023-02-01T15:57:34;13.32;;;5.45;;
56075;SDS011;41951;49.022;12.066;2023-02-01T16:00:05;8.33;;;2.30;;
56075;SDS011;41951;49.022;12.066;2023-02-01T16:04:59;8.93;;;2.15;;
56075;SDS011;41951;49.022;12.066;2023-02-01T16:07:28;9.82;;;2.65;;
56075;SDS011;41951;49.022;12.066;2023-02-01T16:09:56;6.90;;;2.03;;
56075;SDS011;41951;49.022;12.066;2023-02-01T16:12:26;4.78;;;2.05;;
56075;SDS011;41951;49.022;12.066;2023-02-01T16:15:03;4.60;;;1.70;;
56075;SDS011;41951;49.022;12.066;2023-02-01T16:17:29;6.03;;;2.15;;
56075;SDS011;41951;49.022;12.066;2023-02-01T16:19:55;7.40;;;1.80;;
56075;SDS011;41951;49.022;12.066;2023-02-01T16:22:22;9.98;;;2.20;;
56075;SDS011;41951;49.022;12.066;2023-02-01T16:24:47;6.72;;;1.90;;
56075;SDS011;41951;49.022;12.066;2023-02-01T16:27:13;5.75;;;1.90;;
56075;SDS011;41951;49.022;12.066;2023-02-01T16:29:38;10.07;;;2.53;;
56075;SDS011;41951;49.022;12.066;2023-02-01T16:32:04;7.60;;;2.30;;
56075;SDS011;41951;49.022;12.066;2023-02-01T16:34:30;7.90;;;2.42;;
56075;SDS011;41951;49.022;12.066;2023-02-01T16:36:56;9.52;;;2.20;;
56075;SDS011;41951;49.022;12.066;2023-02-01T16:39:22;10.18;;;2.20;;
56075;SDS011;41951;49.022;12.066;2023-02-01T16:41:49;11.23;;;2.00;;
56075;SDS011;41951;49.022;12.066;2023-02-01T16:44:15;6.72;;;2.15;;
56075;SDS011;41951;49.022;12.066;2023-02-01T16:46:41;7.78;;;1.92;;
56075;SDS011;41951;49.022;12.066;2023-02-01T16:49:17;8.18;;;2.03;;
56075;SDS011;41951;49.022;12.066;2023-02-01T16:51:44;11.60;;;2.53;;
56075;SDS011;41951;49.022;12.066;2023-02-01T16:54:10;8.07;;;1.75;;
56075;SDS011;41951;49.022;12.066;2023-02-01T16:56:36;6.00;;;1.60;;
56075;SDS011;41951;49.022;12.066;2023-02-01T16:59:05;8.07;;;2.00;;
56075;SDS011;41951;49.022;12.066;2023-02-01T17:01:30;13.10;;;2.88;;
56075;SDS011;41951;49.022;12.066;2023-02-01T17:03:56;9.23;;;2.38;;
56075;SDS011;41951;49.022;12.066;2023-02-01T17:06:23;6.60;;;2.03;;
56075;SDS011;41951;49.022;12.066;2023-02-01T17:08:56;9.70;;;2.03;;
56075;SDS011;41951;49.022;12.066;2023-02-01T17:11:26;7.65;;;1.83;;
56075;SDS011;41951;49.022;12.066;2023-02-01T17:13:54;5.70;;;2.20;;
56075;SDS011;41951;49.022;12.066;2023-02-01T17:16:39;9.13;;;2.70;;
56075;SDS011;41951;49.022;12.066;2023-02-01T17:19:08;6.05;;;2.10;;
56075;SDS011;41951;49.022;12.066;2023-02-01T17:21:52;9.45;;;2.65;;
56075;SDS011;41951;49.022;12.066;2023-02-01T17:24:21;6.65;;;2.38;;
56075;SDS011;41951;49.022;12.066;2023-02-01T17:26:50;8.75;;;2.33;;
56075;SDS011;41951;49.022;12.066;2023-02-01T17:29:16;7.03;;;1.98;;
56075;SDS011;41951;49.022;12.066;2023-02-01T17:31:43;6.80;;;1.70;;
56075;SDS011;41951;49.022;12.066;2023-02-01T17:34:11;9.98;;;2.35;;
56075;SDS011;41951;49.022;12.066;2023-02-01T17:36:44;6.65;;;1.90;;
56075;SDS011;41951;49.022;12.066;2023-02-01T17:39:11;6.82;;;1.98;;
56075;SDS011;41951;49.022;12.066;2023-02-01T17:42:01;6.32;;;2.00;;
56075;SDS011;41951;49.022;12.066;2023-02-01T17:44:29;9.25;;;2.58;;
56075;SDS011;41951;49.022;12.066;2023-02-01T17:46:54;12.55;;;2.50;;
56075;SDS011;41951;49.022;12.066;2023-02-01T17:49:21;11.25;;;2.22;;
56075;SDS011;41951;49.022;12.066;2023-02-01T17:51:53;7.50;;;2.53;;
56075;SDS011;41951;49.022;12.066;2023-02-01T17:54:20;12.70;;;2.20;;
56075;SDS011;41951;49.022;12.066;2023-02-01T17:56:46;8.43;;;2.67;;
56075;SDS011;41951;49.022;12.066;2023-02-01T17:59:12;11.20;;;1.98;;
56075;SDS011;41951;49.022;12.066;2023-02-01T18:01:42;7.10;;;2.20;;
56075;SDS011;41951;49.022;12.066;2023-02-01T18:04:11;6.13;;;2.20;;